M I D A S
Marine Information and Data Acquisition System
Tripno 1883 of the Zeeleeuw from 2010-05-17 06:33:20 to 2010-05-17 16:14:12
Back to CruiseResearch ActivitiesStationsMapUnderway DataData graphs

EquipmentUnitsComments
TimeDGPSUTC
LatitudeDGPSDM.mWGS84
LongitudeDGPSDM.mWGS84
SpeedMeteo Stationm/sRelative wind speed
DirectionMeteo StationdegRelative wind direction
TemperatureMeteo Stationdeg CelciusAir temperature
PressureMeteo StationPaAtmospheric pressure
HumidityMeteo Station%Relative humidity
Missing or incorrect values are displayed as -999
Metereological data collected by the RV Zeeleeuw from 2010-05-17 06:19:13 to 2010-05-17 16:23:30
Time Latitude Longitude Speed Direction Temperature Pressure Humidity
2010-05-17 06:20 51°13.662 2°55.96 3.6 26 11.4 102020 39
2010-05-17 06:21 51°13.662 2°55.96 3.3 40 11.4 102030 37
2010-05-17 06:22 51°13.661 2°55.96 2.7 33 11.4 102030 36
2010-05-17 06:23 51°13.661 2°55.96 4.1 43 11.4 102030 36
2010-05-17 06:24 51°13.662 2°55.96 2.2 36 11.4 102040 37
2010-05-17 06:25 51°13.662 2°55.96 2.6 35 11.4 102030 40
2010-05-17 06:26 51°13.662 2°55.961 3.2 41 11.3 102030 38
2010-05-17 06:27 51°13.662 2°55.961 3 41 11.4 102030 36
2010-05-17 06:28 51°13.662 2°55.961 2.1 38 11.4 102040 36
2010-05-17 06:29 51°13.662 2°55.96 0.3 20 11.4 102040 39
2010-05-17 06:30 51°13.662 2°55.961 3.3 41 11.4 102040 40
2010-05-17 06:31 51°13.662 2°55.961 2.9 32 11.4 102040 37
2010-05-17 06:32 51°13.662 2°55.96 2.8 24 11.4 102040 37
2010-05-17 06:33 51°13.663 2°55.961 2.5 20 11.4 102040 37
2010-05-17 06:34 51°13.662 2°55.961 3.8 23 11.4 102050 37
2010-05-17 06:35 51°13.663 2°55.961 3.7 42 11.4 102050 39
2010-05-17 06:36 51°13.663 2°55.96 3.9 28 11.4 102050 36
2010-05-17 06:37 51°13.663 2°55.96 3.6 19 11.4 102050 36
2010-05-17 06:38 51°13.663 2°55.961 3 37 11.4 102050 36
2010-05-17 06:39 51°13.662 2°55.96 1.3 38 11.4 102050 40
2010-05-17 06:40 51°13.671 2°55.929 3.5 22 11.4 102050 39
2010-05-17 06:41 51°13.687 2°55.837 3.1 19 11.6 102050 37
2010-05-17 06:42 51°13.698 2°55.759 1.8 28 11.6 102050 36
2010-05-17 06:43 51°13.701 2°55.757 2.6 19 11.6 102050 37
2010-05-17 06:44 51°13.699 2°55.74 3.6 253 11.6 102050 39
2010-05-17 06:45 51°13.757 2°55.686 4.1 322 11.5 102050 37
2010-05-17 06:46 51°13.892 2°55.586 4.6 316 11.6 102050 40
2010-05-17 06:47 51°14.05 2°55.496 5.3 324 11.5 102050 37
2010-05-17 06:48 51°14.201 2°55.362 7.7 20 11.5 102040 37
2010-05-17 06:49 51°14.359 2°55.205 8 24 11.5 102040 37
2010-05-17 06:50 51°14.529 2°55.045 8.7 316 11.4 102040 39
2010-05-17 06:51 51°14.701 2°54.839 9.1 23 11.3 102030 38
2010-05-17 06:52 51°14.885 2°54.647 9 315 11.2 102030 39
2010-05-17 06:53 51°15.078 2°54.501 9.1 27 11.1 102040 37
2010-05-17 06:54 51°15.286 2°54.465 6.9 24 11.1 102050 37
2010-05-17 06:55 51°15.501 2°54.424 8.2 21 11 102050 37
2010-05-17 06:56 51°15.719 2°54.37 7.2 22 10.9 102040 38
2010-05-17 06:57 51°15.897 2°54.324 6.6 19 10.9 102050 37
2010-05-17 06:58 51°16.031 2°54.3 5 21 10.9 102060 37
2010-05-17 06:59 51°16.141 2°54.278 5.9 21 10.9 102060 40
2010-05-17 07:00 51°16.235 2°54.256 5.6 20 11 102060 38
2010-05-17 07:01 51°16.277 2°54.22 4.5 252 11 102070 37
2010-05-17 07:02 51°16.289 2°54.201 4.2 262 11.1 102070 37
2010-05-17 07:03 51°16.299 2°54.187 4.5 260 11.1 102080 40
2010-05-17 07:04 51°16.305 2°54.172 4.8 260 11.1 102080 37
2010-05-17 07:05 51°16.309 2°54.157 5.3 260 11.1 102080 39
2010-05-17 07:06 51°16.311 2°54.14 5.4 258 11.1 102080 39
2010-05-17 07:07 51°16.31 2°54.123 5.4 257 11.1 102080 39
2010-05-17 07:08 51°16.309 2°54.106 5.2 255 11.1 102080 38
2010-05-17 07:09 51°16.307 2°54.09 5.5 254 11.1 102080 38
2010-05-17 07:10 51°16.304 2°54.075 5.1 254 11.2 102080 38
2010-05-17 07:11 51°16.3 2°54.062 4.5 253 11.2 102080 40
2010-05-17 07:12 51°16.296 2°54.05 5.3 255 11.2 102080 39
2010-05-17 07:13 51°16.331 2°54.016 6 279 11.2 102080 37
2010-05-17 07:14 51°16.465 2°53.9 7.6 37 11.1 102070 38
2010-05-17 07:15 51°16.622 2°53.72 8.3 319 11.1 102060 38
2010-05-17 07:16 51°16.786 2°53.486 9.7 319 11 102050 36
2010-05-17 07:17 51°16.946 2°53.233 8.7 321 11 102050 37
2010-05-17 07:18 51°17.082 2°52.971 9.1 322 11 102060 38
2010-05-17 07:19 51°17.234 2°52.691 9.5 322 11 102060 38
2010-05-17 07:20 51°17.382 2°52.416 8.8 322 11 102070 38
2010-05-17 07:21 51°17.537 2°52.148 10.6 321 11 102070 37
2010-05-17 07:22 51°17.7 2°51.898 9.9 322 10.9 102070 38
2010-05-17 07:23 51°17.868 2°51.662 9 320 10.9 102060 39
2010-05-17 07:24 51°18.057 2°51.462 9.5 321 10.8 102060 36
2010-05-17 07:25 51°18.224 2°51.278 7.7 321 10.7 102060 37
2010-05-17 07:26 51°18.318 2°51.167 6.5 32 10.7 102070 36
2010-05-17 07:27 51°18.387 2°51.117 6 32 10.6 102070 38
2010-05-17 07:28 51°18.44 2°51.059 5.9 30 10.6 102070 38
2010-05-17 07:29 51°18.484 2°51.014 5.4 33 10.6 102080 36
2010-05-17 07:30 51°18.499 2°50.987 5.1 38 10.6 102080 39
2010-05-17 07:31 51°18.505 2°50.963 4.5 40 10.6 102080 39
2010-05-17 07:32 51°18.508 2°50.941 4.3 35 10.6 102090 36
2010-05-17 07:33 51°18.508 2°50.922 3.9 34 10.6 102090 38
2010-05-17 07:34 51°18.525 2°50.895 5.9 33 10.7 102090 38
2010-05-17 07:35 51°18.608 2°50.937 5 248 10.7 102070 39
2010-05-17 07:36 51°18.693 2°51.144 5.4 240 10.8 102090 38
2010-05-17 07:37 51°18.767 2°51.438 4.8 241 10.8 102090 39
2010-05-17 07:38 51°18.826 2°51.761 3.5 241 10.8 102100 36
2010-05-17 07:39 51°18.885 2°52.079 3.9 236 10.8 102100 37
2010-05-17 07:40 51°18.945 2°52.395 4.5 239 10.8 102090 35
2010-05-17 07:41 51°19.009 2°52.711 4.7 238 10.9 102100 38
2010-05-17 07:42 51°19.072 2°53.03 4.5 239 10.9 102100 36
2010-05-17 07:43 51°19.135 2°53.344 4 241 10.9 102100 36
2010-05-17 07:44 51°19.199 2°53.662 4.3 240 10.9 102110 37
2010-05-17 07:45 51°19.264 2°53.984 4.7 237 10.9 102100 37
2010-05-17 07:46 51°19.325 2°54.3 4.4 234 10.9 102100 39
2010-05-17 07:47 51°19.387 2°54.613 4.7 237 11 102110 36
2010-05-17 07:48 51°19.449 2°54.926 4 233 11 102100 37
2010-05-17 07:49 51°19.513 2°55.238 4.7 240 11 102110 36
2010-05-17 07:50 51°19.576 2°55.55 3.9 238 11 102100 36
2010-05-17 07:51 51°19.639 2°55.864 4.7 241 11 102110 39
2010-05-17 07:52 51°19.705 2°56.177 4.5 31 11 102110 38
2010-05-17 07:53 51°19.769 2°56.489 4.3 232 11 102100 36
2010-05-17 07:54 51°19.833 2°56.802 4.8 238 11.1 102110 36
2010-05-17 07:55 51°19.897 2°57.113 4.7 32 11.1 102110 39
2010-05-17 07:56 51°19.959 2°57.417 4.5 32 11 102110 36
2010-05-17 07:57 51°20.024 2°57.726 4.6 34 11 102110 37
2010-05-17 07:58 51°20.094 2°58.025 4.5 238 11.1 102110 36
2010-05-17 07:59 51°20.166 2°58.322 4.8 238 11.1 102110 37
2010-05-17 08:00 51°20.236 2°58.616 4.9 240 11.1 102110 38
2010-05-17 08:01 51°20.306 2°58.908 4.7 240 11.1 102110 36
2010-05-17 08:02 51°20.37 2°59.207 4.1 240 11.1 102110 36
2010-05-17 08:03 51°20.419 2°59.511 4.2 236 11.1 102120 38
2010-05-17 08:04 51°20.467 2°59.815 4.8 242 11.1 102110 35
2010-05-17 08:05 51°20.514 3°0.12 3.8 240 11.1 102110 39
2010-05-17 08:06 51°20.559 3°0.413 4.6 242 11.1 102110 36
2010-05-17 08:07 51°20.61 3°0.716 4.4 239 11.1 102120 38
2010-05-17 08:08 51°20.661 3°1.014 4.7 241 11.2 102110 36
2010-05-17 08:09 51°20.709 3°1.314 3.7 240 11.1 102120 36
2010-05-17 08:10 51°20.758 3°1.608 4.1 238 11.2 102120 37
2010-05-17 08:11 51°20.807 3°1.913 4.2 237 11.2 102120 36
2010-05-17 08:12 51°20.855 3°2.213 3.6 34 11.2 102120 35
2010-05-17 08:13 51°20.901 3°2.512 4.6 234 11.2 102120 37
2010-05-17 08:14 51°20.965 3°2.796 3.9 32 11.2 102120 39
2010-05-17 08:15 51°21.031 3°3.085 3.4 33 11.2 102120 37
2010-05-17 08:16 51°21.1 3°3.39 4.2 20 11.2 102120 37
2010-05-17 08:17 51°21.167 3°3.676 4.8 26 11.2 102120 37
2010-05-17 08:18 51°21.234 3°3.967 4.5 28 11.2 102120 36
2010-05-17 08:19 51°21.297 3°4.257 4.1 21 11.2 102120 36
2010-05-17 08:20 51°21.363 3°4.545 4.5 22 11.2 102120 38
2010-05-17 08:21 51°21.425 3°4.82 3.6 23 11.2 102120 39
2010-05-17 08:22 51°21.483 3°5.1 4.5 26 11.3 102120 39
2010-05-17 08:23 51°21.54 3°5.382 4.3 24 11.3 102130 38
2010-05-17 08:24 51°21.6 3°5.671 3.6 25 11.3 102120 36
2010-05-17 08:25 51°21.659 3°5.958 4.2 20 11.3 102130 35
2010-05-17 08:26 51°21.719 3°6.246 3.6 27 11.2 102130 39
2010-05-17 08:27 51°21.777 3°6.531 3.8 20 11.2 102130 37
2010-05-17 08:28 51°21.838 3°6.817 4.6 20 11.2 102130 37
2010-05-17 08:29 51°21.901 3°7.102 4.3 28 11.2 102130 38
2010-05-17 08:30 51°21.959 3°7.39 4.1 21 11.2 102140 36
2010-05-17 08:31 51°22.019 3°7.675 4.5 22 11.3 102140 38
2010-05-17 08:32 51°22.082 3°7.964 4.5 25 11.3 102130 37
2010-05-17 08:33 51°22.144 3°8.255 4.1 22 11.3 102140 36
2010-05-17 08:34 51°22.207 3°8.547 4.1 21 11.3 102140 36
2010-05-17 08:35 51°22.246 3°8.846 3.7 26 11.3 102140 36
2010-05-17 08:36 51°22.275 3°9.149 2.6 28 11.3 102140 36
2010-05-17 08:37 51°22.298 3°9.452 3.7 25 11.3 102140 39
2010-05-17 08:38 51°22.327 3°9.758 3.8 22 11.4 102150 38
2010-05-17 08:39 51°22.357 3°10.055 3.5 21 11.4 102140 39
2010-05-17 08:40 51°22.388 3°10.36 4 22 11.4 102150 38
2010-05-17 08:41 51°22.425 3°10.669 3.8 22 11.4 102140 39
2010-05-17 08:42 51°22.455 3°10.979 3.2 27 11.4 102140 36
2010-05-17 08:43 51°22.469 3°11.291 3.3 22 11.4 102150 35
2010-05-17 08:44 51°22.482 3°11.605 3.1 27 11.4 102150 38
2010-05-17 08:45 51°22.497 3°11.917 3 26 11.5 102150 38
2010-05-17 08:46 51°22.511 3°12.231 2.8 19 11.5 102150 36
2010-05-17 08:47 51°22.525 3°12.52 2.9 254 11.5 102150 35
2010-05-17 08:48 51°22.538 3°12.717 3.2 256 11.6 102160 38
2010-05-17 08:49 51°22.559 3°12.855 2.4 267 11.7 102160 36
2010-05-17 08:50 51°22.573 3°12.959 3.1 29 11.6 102160 35
2010-05-17 08:51 51°22.587 3°13.063 3.1 268 11.5 102160 37
2010-05-17 08:52 51°22.601 3°13.162 3.6 269 11.4 102160 36
2010-05-17 08:53 51°22.614 3°13.181 5.4 261 11.3 102150 38
2010-05-17 08:54 51°22.622 3°13.165 5.9 260 11.2 102150 36
2010-05-17 08:55 51°22.626 3°13.145 5.2 256 11.3 102150 38
2010-05-17 08:56 51°22.627 3°13.12 6.2 254 11.4 102150 36
2010-05-17 08:57 51°22.634 3°13.104 5.8 259 11.5 102150 38
2010-05-17 08:58 51°22.694 3°13.166 5.6 21 11.5 102150 36
2010-05-17 08:59 51°22.797 3°13.295 5.8 21 11.5 102140 37
2010-05-17 09:00 51°22.939 3°13.477 6.1 21 11.4 102140 35
2010-05-17 09:01 51°23.086 3°13.671 6.3 26 11.3 102140 35
2010-05-17 09:02 51°23.236 3°13.868 6.8 27 11.2 102140 35
2010-05-17 09:03 51°23.389 3°14.066 7.3 23 11.2 102150 38
2010-05-17 09:04 51°23.544 3°14.266 7.2 26 11.1 102150 37
2010-05-17 09:05 51°23.7 3°14.469 7.7 23 11.1 102150 36
2010-05-17 09:06 51°23.857 3°14.677 7.4 22 11 102150 38
2010-05-17 09:07 51°24.015 3°14.875 6.8 22 11 102140 36
2010-05-17 09:08 51°24.17 3°15.073 8 23 11 102150 36
2010-05-17 09:09 51°24.336 3°15.279 7.8 23 10.9 102140 37
2010-05-17 09:10 51°24.501 3°15.469 7.9 27 10.9 102140 36
2010-05-17 09:11 51°24.646 3°15.683 7.7 24 10.9 102140 36
2010-05-17 09:12 51°24.794 3°15.92 7.8 22 10.9 102150 37
2010-05-17 09:13 51°24.942 3°16.163 6.6 21 10.8 102140 37
2010-05-17 09:14 51°25.09 3°16.409 6.7 25 10.8 102140 35
2010-05-17 09:15 51°25.232 3°16.656 6.2 24 10.8 102150 37
2010-05-17 09:16 51°25.372 3°16.896 6.9 27 10.8 102150 36
2010-05-17 09:17 51°25.508 3°17.134 5 243 10.9 102160 36
2010-05-17 09:18 51°25.585 3°17.274 5.4 22 10.9 102160 35
2010-05-17 09:19 51°25.655 3°17.397 4.3 22 11 102170 35
2010-05-17 09:20 51°25.715 3°17.511 5.4 248 11.1 102160 35
2010-05-17 09:21 51°25.772 3°17.622 4.4 250 11.1 102160 38
2010-05-17 09:22 51°25.824 3°17.724 5.1 247 11.2 102170 38
2010-05-17 09:23 51°25.866 3°17.803 4.8 248 11.3 102170 35
2010-05-17 09:24 51°25.88 3°17.818 4.3 244 11.3 102170 37
2010-05-17 09:25 51°25.886 3°17.82 4.8 26 11.4 102170 36
2010-05-17 09:26 51°25.9 3°17.872 3.2 31 11.3 102180 38
2010-05-17 09:27 51°25.842 3°17.938 1.6 20 11.3 102180 36
2010-05-17 09:28 51°25.765 3°17.825 6.5 353 11.1 102170 37
2010-05-17 09:29 51°25.707 3°17.556 8.2 344 10.9 102170 36
2010-05-17 09:30 51°25.647 3°17.225 7.9 344 10.9 102170 38
2010-05-17 09:31 51°25.569 3°16.88 9.3 344 10.8 102160 37
2010-05-17 09:32 51°25.496 3°16.528 8.6 343 10.7 102160 37
2010-05-17 09:33 51°25.444 3°16.163 8.2 342 10.7 102160 38
2010-05-17 09:34 51°25.392 3°15.795 9.6 342 10.7 102160 38
2010-05-17 09:35 51°25.31 3°15.435 8.5 343 10.8 102160 38
2010-05-17 09:36 51°25.224 3°15.078 8.4 346 10.7 102160 38
2010-05-17 09:37 51°25.141 3°14.718 8.5 344 10.7 102160 37
2010-05-17 09:38 51°25.058 3°14.359 8.9 344 10.7 102170 37
2010-05-17 09:39 51°24.991 3°13.992 9.3 341 10.7 102170 38
2010-05-17 09:40 51°24.928 3°13.623 9.2 344 10.7 102170 36
2010-05-17 09:41 51°24.867 3°13.25 9 344 10.7 102170 36
2010-05-17 09:42 51°24.82 3°12.869 9.3 346 10.7 102170 37
2010-05-17 09:43 51°24.772 3°12.483 8.9 343 10.6 102170 37
2010-05-17 09:44 51°24.724 3°12.101 7.9 342 10.7 102170 38
2010-05-17 09:45 51°24.677 3°11.723 7.9 341 10.7 102180 38
2010-05-17 09:46 51°24.634 3°11.342 10 340 10.8 102170 36
2010-05-17 09:47 51°24.594 3°10.961 9.3 341 10.8 102170 36
2010-05-17 09:48 51°24.56 3°10.576 9.7 340 10.8 102170 36
2010-05-17 09:49 51°24.525 3°10.191 9.4 339 10.8 102180 38
2010-05-17 09:50 51°24.512 3°9.815 9.7 338 10.8 102180 37
2010-05-17 09:51 51°24.522 3°9.434 8.7 338 10.8 102180 37
2010-05-17 09:52 51°24.549 3°9.073 9.9 337 10.8 102180 37
2010-05-17 09:53 51°24.577 3°8.703 9.1 336 10.8 102180 37
2010-05-17 09:54 51°24.647 3°8.36 10.8 331 10.8 102200 36
2010-05-17 09:55 51°24.731 3°8.026 9.4 335 10.7 102180 36
2010-05-17 09:56 51°24.812 3°7.697 10.4 333 10.7 102190 36
2010-05-17 09:57 51°24.914 3°7.38 9.6 332 10.7 102190 37
2010-05-17 09:58 51°25.056 3°7.12 9.2 327 10.7 102190 36
2010-05-17 09:59 51°25.247 3°6.99 8.7 319 10.7 102180 37
2010-05-17 10:00 51°25.427 3°7.105 6.9 22 10.7 102200 36
2010-05-17 10:01 51°25.57 3°7.323 6 34 10.7 102200 35
2010-05-17 10:02 51°25.726 3°7.531 6.2 39 10.6 102200 36
2010-05-17 10:03 51°25.879 3°7.727 5.6 34 10.6 102200 37
2010-05-17 10:04 51°26.038 3°7.923 6 39 10.6 102200 38
2010-05-17 10:05 51°26.181 3°8.09 5 21 10.6 102200 38
2010-05-17 10:06 51°26.262 3°8.194 3.8 32 10.7 102200 35
2010-05-17 10:07 51°26.325 3°8.234 3.7 21 10.7 102210 37
2010-05-17 10:08 51°26.384 3°8.26 3.4 236 10.8 102210 38
2010-05-17 10:09 51°26.428 3°8.289 3.5 260 10.8 102210 35
2010-05-17 10:10 51°26.425 3°8.322 1.8 266 10.8 102210 38
2010-05-17 10:11 51°26.413 3°8.35 2.5 268 10.8 102220 37
2010-05-17 10:12 51°26.399 3°8.368 2.6 269 10.8 102210 35
2010-05-17 10:13 51°26.383 3°8.379 2.9 270 10.8 102220 39
2010-05-17 10:14 51°26.372 3°8.389 3.5 257 10.8 102220 36
2010-05-17 10:15 51°26.406 3°8.354 5.3 317 10.9 102210 38
2010-05-17 10:16 51°26.504 3°8.195 6.3 324 10.9 102200 38
2010-05-17 10:17 51°26.605 3°7.932 7.5 327 11 102200 38
2010-05-17 10:18 51°26.714 3°7.635 8.4 326 10.9 102190 36
2010-05-17 10:19 51°26.828 3°7.338 8.3 327 10.9 102200 36
2010-05-17 10:20 51°26.945 3°7.031 8.1 325 10.9 102190 36
2010-05-17 10:21 51°27.062 3°6.734 8.8 327 10.9 102200 36
2010-05-17 10:22 51°27.178 3°6.437 10.1 327 10.9 102190 37
2010-05-17 10:23 51°27.294 3°6.143 9.8 327 10.9 102200 36
2010-05-17 10:24 51°27.411 3°5.837 9.3 327 10.8 102180 37
2010-05-17 10:25 51°27.527 3°5.535 11.4 328 10.8 102210 37
2010-05-17 10:26 51°27.642 3°5.237 10.5 328 10.8 102190 37
2010-05-17 10:27 51°27.762 3°4.928 11 327 10.8 102200 36
2010-05-17 10:28 51°27.878 3°4.629 11.2 327 10.7 102200 37
2010-05-17 10:29 51°27.999 3°4.317 10.5 328 10.7 102210 36
2010-05-17 10:30 51°28.105 3°4.055 9.5 324 10.6 102200 36
2010-05-17 10:31 51°28.177 3°3.881 8.1 325 10.6 102220 36
2010-05-17 10:32 51°28.233 3°3.729 7.4 327 10.5 102210 36
2010-05-17 10:33 51°28.286 3°3.579 6 329 10.5 102220 36
2010-05-17 10:34 51°28.305 3°3.506 5.7 29 10.5 102230 35
2010-05-17 10:35 51°28.307 3°3.483 5.1 250 10.6 102230 37
2010-05-17 10:36 51°28.3 3°3.465 4.2 247 10.7 102230 37
2010-05-17 10:37 51°28.29 3°3.446 4.7 253 10.8 102230 38
2010-05-17 10:38 51°28.278 3°3.427 5.2 248 10.8 102230 37
2010-05-17 10:39 51°28.263 3°3.408 4 248 10.8 102240 35
2010-05-17 10:40 51°28.251 3°3.387 5.2 34 10.9 102240 36
2010-05-17 10:41 51°28.256 3°3.34 5.3 330 10.8 102230 38
2010-05-17 10:42 51°28.236 3°3.231 6.4 349 10.7 102230 37
2010-05-17 10:43 51°28.199 3°2.984 8.2 338 10.5 102220 38
2010-05-17 10:44 51°28.175 3°2.655 9.3 339 10.6 102230 37
2010-05-17 10:45 51°28.139 3°2.266 9.9 340 10.5 102220 37
2010-05-17 10:46 51°28.101 3°1.881 9.2 340 10.5 102220 37
2010-05-17 10:47 51°28.06 3°1.489 10.6 340 10.5 102220 37
2010-05-17 10:48 51°27.997 3°1.103 10.4 342 10.5 102230 37
2010-05-17 10:49 51°27.931 3°0.72 9.6 340 10.5 102230 37
2010-05-17 10:50 51°27.861 3°0.345 9.8 339 10.5 102230 36
2010-05-17 10:51 51°27.793 2°59.958 10.8 339 10.5 102230 37
2010-05-17 10:52 51°27.726 2°59.58 9.8 338 10.5 102220 36
2010-05-17 10:53 51°27.66 2°59.202 9.5 341 10.4 102220 36
2010-05-17 10:54 51°27.595 2°58.827 10.4 342 10.4 102230 37
2010-05-17 10:55 51°27.53 2°58.452 10.3 340 10.4 102230 37
2010-05-17 10:56 51°27.465 2°58.076 9.8 339 10.5 102240 36
2010-05-17 10:57 51°27.398 2°57.696 10.8 339 10.4 102230 34
2010-05-17 10:58 51°27.324 2°57.314 10.1 339 10.5 102230 37
2010-05-17 10:59 51°27.248 2°56.933 10.9 342 10.5 102240 36
2010-05-17 11:00 51°27.174 2°56.55 9.4 339 10.5 102240 37
2010-05-17 11:01 51°27.099 2°56.168 10.1 342 10.5 102240 37
2010-05-17 11:02 51°27.027 2°55.788 4.4 340 10.5 102240 37
2010-05-17 11:03 51°26.956 2°55.411 9.7 340 10.5 102240 36
2010-05-17 11:04 51°26.884 2°55.034 9.1 338 10.4 102240 36
2010-05-17 11:05 51°26.813 2°54.656 10.6 340 10.5 102250 37
2010-05-17 11:06 51°26.741 2°54.267 9.7 338 10.5 102240 37
2010-05-17 11:07 51°26.67 2°53.892 10.9 338 10.4 102250 38
2010-05-17 11:08 51°26.6 2°53.514 10.2 341 10.4 102250 37
2010-05-17 11:09 51°26.531 2°53.141 10.4 338 10.4 102260 36
2010-05-17 11:10 51°26.463 2°52.775 9.7 343 10.5 102250 36
2010-05-17 11:11 51°26.391 2°52.394 9.5 339 10.4 102250 37
2010-05-17 11:12 51°26.322 2°52.024 10 338 10.4 102250 37
2010-05-17 11:13 51°26.254 2°51.653 10.7 341 10.4 102250 37
2010-05-17 11:14 51°26.186 2°51.284 9.8 339 10.4 102250 37
2010-05-17 11:15 51°26.116 2°50.91 9.9 337 10.3 102250 36
2010-05-17 11:16 51°26.048 2°50.534 9.8 338 10.3 102250 36
2010-05-17 11:17 51°25.977 2°50.157 10.5 339 10.4 102250 36
2010-05-17 11:18 51°25.93 2°49.776 9.1 335 10.3 102250 36
2010-05-17 11:19 51°25.899 2°49.392 8.9 335 10.3 102260 36
2010-05-17 11:20 51°25.866 2°49.009 9.6 337 10.3 102260 35
2010-05-17 11:21 51°25.833 2°48.661 7.8 -999 10.3 102270 36
2010-05-17 11:23 51°25.86 2°48.484 5 27 10.3 102270 37
2010-05-17 11:24 51°25.901 2°48.48 4.5 260 10.3 102280 38
2010-05-17 11:25 51°25.9 2°48.481 4.1 21 10.3 102290 35
2010-05-17 11:26 51°25.886 2°48.476 4.1 23 10.4 102290 35
2010-05-17 11:27 51°25.87 2°48.469 3.9 268 10.3 102300 36
2010-05-17 11:28 51°25.854 2°48.459 4 266 10.3 102300 36
2010-05-17 11:29 51°25.837 2°48.444 3.4 264 10.3 102290 34
2010-05-17 11:30 51°25.819 2°48.428 4 264 10.3 102300 38
2010-05-17 11:31 51°25.8 2°48.41 5.1 259 10.3 102300 35
2010-05-17 11:32 51°25.78 2°48.393 2.6 258 10.4 102300 36
2010-05-17 11:33 51°25.773 2°48.394 3.6 268 10.5 102290 38
2010-05-17 11:34 51°25.734 2°48.462 2.6 31 10.5 102290 36
2010-05-17 11:35 51°25.632 2°48.398 5.8 352 10.4 102290 36
2010-05-17 11:36 51°25.47 2°48.179 7.9 348 10.3 102270 35
2010-05-17 11:37 51°25.284 2°47.928 7.6 347 10.1 102270 37
2010-05-17 11:38 51°25.098 2°47.673 7.9 349 10 102270 36
2010-05-17 11:39 51°24.913 2°47.41 8.3 347 9.9 102270 35
2010-05-17 11:40 51°24.729 2°47.146 7 348 9.9 102270 35
2010-05-17 11:41 51°24.546 2°46.878 8.7 348 9.9 102280 36
2010-05-17 11:42 51°24.399 2°46.561 10.1 343 10 102270 37
2010-05-17 11:43 51°24.291 2°46.212 9.6 340 10.1 102270 35
2010-05-17 11:44 51°24.207 2°45.84 10.5 340 10.3 102280 37
2010-05-17 11:45 51°24.116 2°45.472 8.9 339 10.3 102280 36
2010-05-17 11:46 51°24.022 2°45.105 10.1 340 10.4 102270 36
2010-05-17 11:47 51°23.926 2°44.731 9.5 339 10.5 102270 36
2010-05-17 11:48 51°23.83 2°44.366 9.8 341 10.5 102280 36
2010-05-17 11:49 51°23.735 2°44.008 10.4 341 10.5 102280 36
2010-05-17 11:50 51°23.638 2°43.644 11.2 340 10.6 102280 37
2010-05-17 11:51 51°23.541 2°43.284 10.3 341 10.6 102290 37
2010-05-17 11:52 51°23.446 2°42.924 10 341 10.6 102280 36
2010-05-17 11:53 51°23.351 2°42.561 10.1 340 10.6 102290 37
2010-05-17 11:54 51°23.256 2°42.201 10 341 10.5 102280 36
2010-05-17 11:55 51°23.16 2°41.843 10 342 10.6 102280 36
2010-05-17 11:56 51°23.064 2°41.488 9.6 344 10.6 102280 37
2010-05-17 11:57 51°22.968 2°41.132 10.1 342 10.5 102280 36
2010-05-17 11:58 51°22.873 2°40.787 10.6 343 10.6 102290 36
2010-05-17 11:59 51°22.779 2°40.443 9.7 344 10.5 102280 37
2010-05-17 12:00 51°22.685 2°40.099 9.1 342 10.6 102280 36
2010-05-17 12:01 51°22.591 2°39.753 9.5 342 10.6 102290 37
2010-05-17 12:02 51°22.496 2°39.406 9.2 341 10.7 102290 36
2010-05-17 12:03 51°22.4 2°39.059 9.4 340 10.6 102290 37
2010-05-17 12:04 51°22.303 2°38.715 10.4 341 10.7 102290 37
2010-05-17 12:05 51°22.21 2°38.374 8.7 341 10.7 102290 36
2010-05-17 12:06 51°22.115 2°38.039 8.9 339 10.7 102280 37
2010-05-17 12:07 51°22.022 2°37.702 10.1 337 10.8 102290 36
2010-05-17 12:08 51°21.928 2°37.366 9.3 341 10.8 102290 37
2010-05-17 12:09 51°21.834 2°37.03 9.7 339 10.8 102300 37
2010-05-17 12:10 51°21.743 2°36.693 10.1 339 10.8 102300 36
2010-05-17 12:11 51°21.65 2°36.358 9.4 339 10.8 102300 36
2010-05-17 12:12 51°21.558 2°36.022 9.3 338 10.8 102300 37
2010-05-17 12:13 51°21.465 2°35.687 10 338 10.7 102300 37
2010-05-17 12:14 51°21.37 2°35.354 10 339 10.8 102300 36
2010-05-17 12:15 51°21.267 2°35.026 9.7 342 10.8 102310 37
2010-05-17 12:16 51°21.164 2°34.702 9.2 341 10.8 102300 36
2010-05-17 12:17 51°21.068 2°34.376 8.9 339 10.8 102300 36
2010-05-17 12:18 51°20.978 2°34.051 9.2 341 10.8 102310 38
2010-05-17 12:19 51°20.89 2°33.725 8.4 339 10.7 102310 37
2010-05-17 12:20 51°20.775 2°33.426 8.1 341 10.8 102310 36
2010-05-17 12:21 51°20.641 2°33.142 8.9 339 10.7 102310 36
2010-05-17 12:22 51°20.579 2°32.796 9.5 338 10.8 102310 37
2010-05-17 12:23 51°20.517 2°32.462 8.7 341 10.7 102310 38
2010-05-17 12:24 51°20.439 2°32.129 9.3 341 10.7 102310 37
2010-05-17 12:25 51°20.368 2°31.759 9.2 278 10.8 102310 36
2010-05-17 12:26 51°20.3 2°31.421 8.7 284 10.8 102310 37
2010-05-17 12:27 51°20.235 2°31.088 8.3 282 10.8 102310 36
2010-05-17 12:28 51°20.173 2°30.778 7.4 285 10.8 102310 36
2010-05-17 12:29 51°20.129 2°30.568 5.7 285 10.9 102320 37
2010-05-17 12:30 51°20.091 2°30.395 5.7 284 10.9 102320 36
2010-05-17 12:31 51°20.049 2°30.194 5.6 283 10.9 102320 37
2010-05-17 12:32 51°20.011 2°30.033 4.3 284 10.9 102320 39
2010-05-17 12:33 51°19.986 2°30.009 1.9 13 10.9 102320 35
2010-05-17 12:34 51°19.966 2°30.034 2.1 22 10.9 102320 36
2010-05-17 12:35 51°19.95 2°30.07 2.4 24 10.9 102330 36
2010-05-17 12:36 51°19.935 2°30.107 1.6 24 10.8 102320 35
2010-05-17 12:37 51°19.912 2°30.145 1.6 22 10.8 102320 38
2010-05-17 12:38 51°19.848 2°30.255 0.1 358 10.9 102330 37
2010-05-17 12:39 51°19.74 2°30.515 2.8 279 10.9 102330 39
2010-05-17 12:40 51°19.615 2°30.841 3.4 284 10.8 102330 38
2010-05-17 12:41 51°19.475 2°31.142 2.9 281 10.9 102330 37
2010-05-17 12:42 51°19.334 2°31.431 2.4 280 10.9 102320 36
2010-05-17 12:43 51°19.195 2°31.719 2.6 282 10.9 102330 36
2010-05-17 12:44 51°19.054 2°32.008 3.7 348 10.8 102330 36
2010-05-17 12:45 51°18.911 2°32.296 3.5 281 10.8 102330 39
2010-05-17 12:46 51°18.773 2°32.59 2.7 351 10.8 102330 38
2010-05-17 12:47 51°18.635 2°32.885 2.3 282 10.8 102340 39
2010-05-17 12:48 51°18.501 2°33.181 2.9 283 10.8 102330 39
2010-05-17 12:49 51°18.361 2°33.49 3.4 346 10.8 102340 36
2010-05-17 12:50 51°18.223 2°33.798 2.4 339 10.9 102340 39
2010-05-17 12:51 51°18.089 2°34.106 3.2 346 11 102340 37
2010-05-17 12:52 51°17.953 2°34.409 1.8 343 11 102340 39
2010-05-17 12:53 51°17.815 2°34.712 3.1 348 10.9 102340 39
2010-05-17 12:54 51°17.666 2°35.003 2.8 351 11 102350 39
2010-05-17 12:55 51°17.513 2°35.298 2.7 347 10.9 102340 35
2010-05-17 12:56 51°17.361 2°35.597 3.4 342 10.9 102340 36
2010-05-17 12:57 51°17.209 2°35.898 3.8 352 10.8 102350 39
2010-05-17 12:58 51°17.059 2°36.194 2.6 348 10.8 102340 36
2010-05-17 12:59 51°16.911 2°36.475 4.2 353 10.8 102350 36
2010-05-17 13:00 51°16.729 2°36.664 4.2 356 10.7 102350 38
2010-05-17 13:01 51°16.627 2°36.811 1.4 42 10.8 102350 36
2010-05-17 13:02 51°16.623 2°36.905 3 58 10.9 102350 38
2010-05-17 13:03 51°16.63 2°36.938 3.4 308 10.9 102350 37
2010-05-17 13:04 51°16.635 2°36.966 2.6 308 11 102350 37
2010-05-17 13:05 51°16.64 2°36.995 3 305 11.1 102350 36
2010-05-17 13:06 51°16.645 2°37.024 3.1 307 11.2 102350 38
2010-05-17 13:07 51°16.658 2°37.058 2.6 303 11.3 102350 39
2010-05-17 13:08 51°16.682 2°37.147 0.4 52 11.4 102340 36
2010-05-17 13:09 51°16.635 2°37.241 3 7 11.4 102350 39
2010-05-17 13:10 51°16.49 2°37.289 5.7 350 11.2 102340 35
2010-05-17 13:11 51°16.287 2°37.294 6.4 349 11 102330 34
2010-05-17 13:12 51°16.066 2°37.302 6.1 350 10.9 102340 36
2010-05-17 13:13 51°15.85 2°37.32 7 348 10.8 102340 37
2010-05-17 13:14 51°15.625 2°37.339 5.9 350 10.8 102340 37
2010-05-17 13:15 51°15.41 2°37.363 6.1 349 10.7 102340 38
2010-05-17 13:16 51°15.191 2°37.395 6.3 349 10.7 102340 38
2010-05-17 13:17 51°14.972 2°37.428 6.1 350 10.7 102340 36
2010-05-17 13:18 51°14.751 2°37.46 6.5 349 10.7 102340 37
2010-05-17 13:19 51°14.527 2°37.491 5.9 347 10.7 102350 36
2010-05-17 13:20 51°14.312 2°37.518 5.5 348 10.7 102350 38
2010-05-17 13:21 51°14.093 2°37.548 4.8 348 10.7 102340 37
2010-05-17 13:22 51°13.875 2°37.561 5.7 347 10.8 102350 37
2010-05-17 13:23 51°13.658 2°37.55 5.1 348 10.8 102350 38
2010-05-17 13:24 51°13.441 2°37.535 5.6 349 10.8 102350 38
2010-05-17 13:25 51°13.22 2°37.516 5.8 348 10.8 102340 36
2010-05-17 13:26 51°12.999 2°37.498 5.6 349 10.8 102350 37
2010-05-17 13:27 51°12.779 2°37.483 5.1 348 10.8 102340 36
2010-05-17 13:28 51°12.565 2°37.422 5.6 347 10.8 102350 38
2010-05-17 13:29 51°12.365 2°37.337 5.3 346 10.8 102340 38
2010-05-17 13:30 51°12.159 2°37.253 5.4 344 10.9 102350 36
2010-05-17 13:31 51°11.95 2°37.166 5.7 347 10.9 102350 37
2010-05-17 13:32 51°11.745 2°37.096 5.1 346 10.9 102350 35
2010-05-17 13:33 51°11.538 2°37.029 5.4 348 10.9 102350 38
2010-05-17 13:34 51°11.328 2°36.987 4.9 347 10.9 102350 35
2010-05-17 13:35 51°11.118 2°36.95 4.4 348 10.9 102350 37
2010-05-17 13:36 51°10.908 2°36.93 4.5 347 10.9 102350 37
2010-05-17 13:37 51°10.699 2°36.907 4.7 348 10.9 102350 37
2010-05-17 13:38 51°10.487 2°36.882 4.4 347 10.9 102360 38
2010-05-17 13:39 51°10.276 2°36.911 3.7 343 10.9 102360 35
2010-05-17 13:40 51°10.063 2°36.992 3.4 346 11 102360 37
2010-05-17 13:41 51°9.855 2°37.083 1.9 345 11 102360 38
2010-05-17 13:42 51°9.701 2°37.262 1.8 350 11 102370 38
2010-05-17 13:43 51°9.557 2°37.392 0.1 359 11.1 102370 34
2010-05-17 13:44 51°9.472 2°37.522 0.2 57 11.2 102370 37
2010-05-17 13:45 51°9.463 2°37.617 2.3 307 11.4 102370 39
2010-05-17 13:46 51°9.47 2°37.657 2.9 301 11.4 102370 35
2010-05-17 13:47 51°9.475 2°37.682 3 325 11.4 102370 35
2010-05-17 13:48 51°9.481 2°37.696 3.4 50 11.4 102370 37
2010-05-17 13:49 51°9.494 2°37.704 3.3 51 11.4 102380 38
2010-05-17 13:50 51°9.512 2°37.71 3.2 73 11.4 102380 35
2010-05-17 13:51 51°9.535 2°37.715 2.4 59 11.3 102380 36
2010-05-17 13:52 51°9.556 2°37.736 2.7 57 11.3 102380 35
2010-05-17 13:53 51°9.585 2°37.846 4.5 285 11.4 102380 36
2010-05-17 13:54 51°9.657 2°37.877 4.3 283 11.5 102370 38
2010-05-17 13:55 51°9.669 2°37.827 3.2 7 11.5 102370 37
2010-05-17 13:56 51°9.61 2°37.799 2.5 359 11.5 102380 35
2010-05-17 13:57 51°9.534 2°37.712 4.1 353 11.5 102380 35
2010-05-17 13:58 51°9.455 2°37.619 4.7 354 11.4 102380 37
2010-05-17 13:59 51°9.433 2°37.547 4.3 355 11.3 102380 35
2010-05-17 14:00 51°9.423 2°37.512 3.1 2 11.3 102380 35
2010-05-17 14:01 51°9.412 2°37.5 2.9 6 11.3 102380 35
2010-05-17 14:02 51°9.405 2°37.501 3 8 11.3 102380 35
2010-05-17 14:03 51°9.404 2°37.508 2.3 5 11.4 102380 38
2010-05-17 14:04 51°9.404 2°37.523 3 1 11.4 102380 35
2010-05-17 14:05 51°9.406 2°37.542 3.1 3 11.4 102380 35
2010-05-17 14:06 51°9.409 2°37.565 2.6 6 11.3 102390 36
2010-05-17 14:07 51°9.413 2°37.59 3.1 3 11.4 102390 38
2010-05-17 14:08 51°9.418 2°37.618 2.6 2 11.4 102380 35
2010-05-17 14:09 51°9.423 2°37.647 2.7 3 11.4 102390 38
2010-05-17 14:10 51°9.429 2°37.678 3 2 11.5 102390 35
2010-05-17 14:11 51°9.435 2°37.71 3 -999 11.4 102390 37
2010-05-17 14:12 51°9.441 2°37.737 3.3 353 11.4 102390 35
2010-05-17 14:13 51°9.445 2°37.649 5.4 279 11.4 102390 35
2010-05-17 14:14 51°9.449 2°37.443 6 340 11.6 102390 37
2010-05-17 14:15 51°9.492 2°37.376 3.9 330 11.6 102400 36
2010-05-17 14:16 51°9.533 2°37.37 3.3 303 11.7 102400 35
2010-05-17 14:17 51°9.567 2°37.376 3.6 336 11.8 102400 35
2010-05-17 14:18 51°9.583 2°37.383 3 353 11.8 102400 38
2010-05-17 14:19 51°9.586 2°37.402 3.2 2 11.7 102400 38
2010-05-17 14:20 51°9.58 2°37.427 3.2 6 11.6 102400 35
2010-05-17 14:21 51°9.571 2°37.454 3 8 11.5 102400 35
2010-05-17 14:22 51°9.562 2°37.477 2.4 7 11.5 102400 37
2010-05-17 14:23 51°9.54 2°37.467 3.9 358 11.5 102400 35
2010-05-17 14:24 51°9.523 2°37.458 4.4 357 11.4 102400 35
2010-05-17 14:25 51°9.516 2°37.461 4 355 11.4 102400 36
2010-05-17 14:26 51°9.511 2°37.467 4.4 357 11.4 102410 35
2010-05-17 14:27 51°9.486 2°37.457 4.1 2 11.4 102410 36
2010-05-17 14:28 51°9.47 2°37.455 4 353 11.4 102410 36
2010-05-17 14:29 51°9.463 2°37.457 4.8 355 11.4 102410 35
2010-05-17 14:30 51°9.459 2°37.467 3.9 353 11.3 102420 35
2010-05-17 14:31 51°9.457 2°37.48 3.8 354 11.3 102420 35
2010-05-17 14:32 51°9.457 2°37.494 4 357 11.4 102420 35
2010-05-17 14:33 51°9.458 2°37.511 4.9 357 11.3 102420 36
2010-05-17 14:34 51°9.46 2°37.53 4.1 357 11.3 102420 37
2010-05-17 14:35 51°9.462 2°37.55 3.8 354 11.3 102420 37
2010-05-17 14:36 51°9.465 2°37.57 3.7 351 11.4 102420 37
2010-05-17 14:37 51°9.462 2°37.563 4.8 346 11.5 102420 37
2010-05-17 14:38 51°9.457 2°37.527 5 346 11.5 102420 35
2010-05-17 14:39 51°9.459 2°37.507 4.7 343 11.6 102420 35
2010-05-17 14:40 51°9.464 2°37.499 4.1 342 11.7 102420 35
2010-05-17 14:41 51°9.471 2°37.499 4.7 340 11.8 102430 37
2010-05-17 14:42 51°9.479 2°37.504 4.3 341 11.8 102420 35
2010-05-17 14:43 51°9.487 2°37.512 4.3 338 11.9 102420 35
2010-05-17 14:44 51°9.497 2°37.524 4.1 334 12.1 102420 36
2010-05-17 14:45 51°9.506 2°37.538 5 336 12.1 102430 36
2010-05-17 14:46 51°9.515 2°37.554 4.7 336 12 102420 35
2010-05-17 14:47 51°9.518 2°37.562 5.4 353 12 102420 36
2010-05-17 14:48 51°9.473 2°37.564 5.7 352 11.9 102420 35
2010-05-17 14:49 51°9.454 2°37.545 5 341 11.7 102420 36
2010-05-17 14:50 51°9.452 2°37.541 5.2 342 11.7 102420 37
2010-05-17 14:51 51°9.454 2°37.549 4.9 343 11.7 102420 39
2010-05-17 14:52 51°9.456 2°37.565 4.3 346 11.7 102420 36
2010-05-17 14:53 51°9.456 2°37.585 5.5 351 11.6 102420 38
2010-05-17 14:54 51°9.451 2°37.605 5.8 355 11.5 102420 37
2010-05-17 14:55 51°9.446 2°37.623 5.5 351 11.5 102420 36
2010-05-17 14:56 51°9.44 2°37.638 6 349 11.4 102420 36
2010-05-17 14:57 51°9.435 2°37.653 6.4 347 11.4 102420 37
2010-05-17 14:58 51°9.425 2°37.649 7.8 339 11.4 102430 37
2010-05-17 14:59 51°9.421 2°37.626 6.5 341 11.4 102430 36
2010-05-17 15:00 51°9.425 2°37.623 6.3 339 11.4 102430 38
2010-05-17 15:01 51°9.431 2°37.597 6.9 337 11.5 102430 38
2010-05-17 15:02 51°9.435 2°37.572 6.7 344 11.6 102440 36
2010-05-17 15:03 51°9.44 2°37.595 5.6 353 11.5 102440 38
2010-05-17 15:04 51°9.443 2°37.63 6 3 11.4 102440 39
2010-05-17 15:05 51°9.446 2°37.671 5.7 5 11.3 102440 38
2010-05-17 15:06 51°9.446 2°37.709 5.8 355 11.2 102450 39
2010-05-17 15:07 51°9.395 2°37.722 3.6 41 11.2 102440 37
2010-05-17 15:08 51°9.364 2°37.978 3.8 256 11.3 102470 38
2010-05-17 15:09 51°9.395 2°38.366 4.5 245 11.5 102470 37
2010-05-17 15:10 51°9.473 2°38.748 5.1 242 11.5 102480 36
2010-05-17 15:11 51°9.535 2°39.136 4.5 248 11.6 102470 37
2010-05-17 15:12 51°9.603 2°39.525 4.8 245 11.6 102470 37
2010-05-17 15:13 51°9.68 2°39.907 5.9 248 11.6 102470 36
2010-05-17 15:14 51°9.755 2°40.285 5.4 244 11.7 102480 39
2010-05-17 15:15 51°9.827 2°40.666 5.3 240 11.8 102470 36
2010-05-17 15:16 51°9.899 2°41.049 5.9 31 11.8 102470 36
2010-05-17 15:17 51°9.972 2°41.437 6.4 238 11.8 102470 39
2010-05-17 15:18 51°10.042 2°41.825 7.5 237 11.7 102470 38
2010-05-17 15:19 51°10.114 2°42.212 6.5 34 11.7 102470 36
2010-05-17 15:20 51°10.179 2°42.55 6.4 241 11.7 102470 37
2010-05-17 15:21 51°10.228 2°42.714 5.2 247 11.7 102470 36
2010-05-17 15:22 51°10.244 2°42.772 5.9 257 11.7 102480 38
2010-05-17 15:23 51°10.255 2°42.825 4.8 250 11.8 102480 37
2010-05-17 15:24 51°10.265 2°42.876 5.8 251 11.8 102470 36
2010-05-17 15:25 51°10.276 2°42.93 7.1 242 11.9 102470 36
2010-05-17 15:26 51°10.332 2°42.962 8.5 334 11.8 102460 35
2010-05-17 15:27 51°10.431 2°42.819 11.9 335 11.7 102440 36
2010-05-17 15:28 51°10.57 2°42.594 13.1 335 11.7 102450 36
2010-05-17 15:29 51°10.713 2°42.363 12.5 334 11.7 102460 36
2010-05-17 15:30 51°10.883 2°42.092 11.1 335 11.7 102440 35
2010-05-17 15:31 51°11.019 2°41.984 8.7 318 11.6 102460 36
2010-05-17 15:32 51°11.075 2°42.039 6.7 253 11.6 102460 36
2010-05-17 15:33 51°11.083 2°42.081 4.7 268 11.6 102480 36
2010-05-17 15:34 51°11.09 2°42.125 6.1 35 11.6 102480 33
2010-05-17 15:35 51°11.094 2°42.17 7.7 269 11.5 102480 35
2010-05-17 15:36 51°11.096 2°42.215 8.4 258 11.3 102480 36
2010-05-17 15:37 51°11.086 2°42.36 7.2 241 11.2 102480 37
2010-05-17 15:38 51°11.095 2°42.677 9.7 38 11.1 102470 35
2010-05-17 15:39 51°11.151 2°43.061 9.7 34 10.9 102460 35
2010-05-17 15:40 51°11.217 2°43.441 10 316 10.7 102460 35
2010-05-17 15:41 51°11.311 2°43.805 8.6 316 10.6 102460 35
2010-05-17 15:42 51°11.398 2°44.175 8.8 317 10.6 102470 36
2010-05-17 15:43 51°11.481 2°44.544 9.2 317 10.6 102470 35
2010-05-17 15:44 51°11.566 2°44.912 9.4 316 10.6 102470 35
2010-05-17 15:45 51°11.649 2°45.28 9.2 317 10.5 102480 36
2010-05-17 15:46 51°11.734 2°45.649 8.5 317 10.6 102480 33
2010-05-17 15:47 51°11.819 2°46.023 8.5 316 10.6 102480 34
2010-05-17 15:48 51°11.904 2°46.397 9.1 318 10.6 102480 36
2010-05-17 15:49 51°11.989 2°46.771 8.7 317 10.6 102470 34
2010-05-17 15:50 51°12.075 2°47.144 8.5 318 10.6 102480 35
2010-05-17 15:51 51°12.161 2°47.518 8.4 319 10.6 102480 35
2010-05-17 15:52 51°12.249 2°47.894 7.5 320 10.5 102480 35
2010-05-17 15:53 51°12.335 2°48.268 7.6 318 10.5 102480 34
2010-05-17 15:54 51°12.423 2°48.637 7.9 320 10.5 102480 33
2010-05-17 15:55 51°12.525 2°48.999 7.5 321 10.5 102470 36
2010-05-17 15:56 51°12.635 2°49.356 7.4 320 10.5 102480 36
2010-05-17 15:57 51°12.764 2°49.697 8.5 323 10.5 102470 34
2010-05-17 15:58 51°12.895 2°50.038 7.5 322 10.5 102470 34
2010-05-17 15:59 51°13.023 2°50.379 7.7 321 10.5 102470 35
2010-05-17 16:00 51°13.152 2°50.72 8 322 10.5 102470 36
2010-05-17 16:01 51°13.278 2°51.059 7.8 324 10.5 102470 35
2010-05-17 16:02 51°13.405 2°51.4 7.2 323 10.4 102470 34
2010-05-17 16:03 51°13.533 2°51.742 7.4 324 10.4 102470 35
2010-05-17 16:04 51°13.66 2°52.084 7.1 323 10.5 102470 34
2010-05-17 16:05 51°13.787 2°52.426 6.7 324 10.4 102470 35
2010-05-17 16:06 51°13.913 2°52.767 6 325 10.4 102470 36
2010-05-17 16:07 51°14.041 2°53.107 6.3 322 10.4 102470 34
2010-05-17 16:08 51°14.163 2°53.421 6 324 10.4 102480 34
2010-05-17 16:09 51°14.28 2°53.729 5.9 324 10.4 102470 34
2010-05-17 16:10 51°14.39 2°54.042 5.5 324 10.4 102470 33
2010-05-17 16:11 51°14.507 2°54.347 5.4 323 10.4 102470 36
2010-05-17 16:12 51°14.59 2°54.668 4.3 322 10.5 102470 33
2010-05-17 16:13 51°14.531 2°54.982 3.6 328 10.5 102480 36
2010-05-17 16:14 51°14.37 2°55.16 2.9 332 10.6 102480 36
2010-05-17 16:15 51°14.244 2°55.305 1.7 330 10.6 102480 36
2010-05-17 16:16 51°14.129 2°55.421 0.8 335 10.6 102490 37
2010-05-17 16:17 51°14.004 2°55.507 0.7 338 10.6 102490 35
2010-05-17 16:19 51°13.914 2°55.569 0.1 341 10.8 102490 36
2010-05-17 16:20 51°13.726 2°55.772 -999 258 10.8 102490 35
2010-05-17 16:21 51°13.686 2°55.861 0.1 262 10.9 102490 35
2010-05-17 16:22 51°13.667 2°55.939 1.4 260 11.1 102490 34
2010-05-17 16:23 51°13.663 2°55.96 2.2 21 11.3 102490 37